Portada
METAR-TAF:

METAR-TAF

Aeroports :

Pyongyang, Corea del Nord

latitud: 39-02N, longitud: 125-47E, altitud: 36 m

METAR: manca

Hora: 17:11 (08:41 UTC)

Pronòstic

L'informe es va fer fa 4 hores i 41 minuts, a les 04:00 UTC
Pronòstic vàlid del 12 a les 06 UTC al 13 a les 06 UTC
Vent 8 kt del Sud-Est
Visibilitat 10 km o més
sense núvols per sota de 1500 mi sense presència de cumulonimbus.
Evolucionant progressivament
l' 12 a les 12 UTC al 12 a les 14 UTC
Vent 6 kt del Sud-Oest
Cel cobert a una alçada de 2000 ft
Temporalment
l' 12 a les 22 UTC al 13 a les 06 UTC
Visibilitat: 6000 m
Cel cobert a una alçada de 1000 ft
pluja

TAF: ZKPY 120400Z 1206/1306 14004MPS CAVOK TX12/1206Z TN04/1221Z BECMG 1212/1214 23003MPS OVC020 TEMPO 1222/1306 6000 -RA OVC010

Observacions i pronòstics meteorològics de més de 4000 aeroports (METAR i TAF).

Les estacions disponibles són els punts grocs i vermells al mapa.

Posi el ratolí al punt desitjat per veure el nom de l'estació.

Feu clic per veure les observacions i els pronòstics meteorològics.

Per canviar el mapa: feu clic els botons verds amb una creu de color negre per apropar; al botó verd amb un guió per allunyar la imatge; o en les fletxes verdes per a mapes adjacents.


METAR-TAF: